createdAt,value
2019-01-30T00:00:39.780Z,61.27
2019-01-30T00:01:39.762Z,60.99
2019-01-30T00:02:39.742Z,60.24
2019-01-30T00:03:39.718Z,60.33
2019-01-30T00:04:39.695Z,60.33
2019-01-30T00:05:39.674Z,61.18
2019-01-30T00:06:39.654Z,61.46
2019-01-30T00:07:39.630Z,61.36
2019-01-30T00:08:39.610Z,62.21
2019-01-30T00:09:39.584Z,62.02
2019-01-30T00:10:39.569Z,62.21
2019-01-30T00:11:39.548Z,61.93
2019-01-30T00:12:39.537Z,62.78
2019-01-30T00:13:39.503Z,62.88
2019-01-30T00:14:39.480Z,63.07
2019-01-30T00:15:39.464Z,62.97
2019-01-30T00:16:39.438Z,61.46
2019-01-30T00:17:39.419Z,61.55
2019-01-30T00:18:39.391Z,62.02
2019-01-30T00:19:39.372Z,63.16
2019-01-30T00:20:39.357Z,61.36
2019-01-30T00:21:39.338Z,61.65
2019-01-30T00:22:39.309Z,61.36
2019-01-30T00:23:39.291Z,61.08
2019-01-30T00:24:39.275Z,60.33
2019-01-30T00:25:39.244Z,60.52
2019-01-30T00:26:39.228Z,60.52
2019-01-30T00:27:39.208Z,59.67
2019-01-30T00:28:39.181Z,58.53
2019-01-30T00:29:39.158Z,57.78
2019-01-30T00:30:39.142Z,57.59
2019-01-30T00:31:39.119Z,56.93
2019-01-30T00:32:39.099Z,57.03
2019-01-30T00:33:39.079Z,58.63
2019-01-30T00:34:39.058Z,58.91
2019-01-30T00:35:39.036Z,58.53
2019-01-30T00:36:39.014Z,57.78
2019-01-30T00:37:38.995Z,58.63
2019-01-30T00:38:38.972Z,58.63
2019-01-30T00:39:38.954Z,58.82
2019-01-30T00:40:38.928Z,58.06
2019-01-30T00:41:38.908Z,57.78
2019-01-30T00:42:38.886Z,57.21
2019-01-30T00:43:38.863Z,58.06
2019-01-30T00:44:38.848Z,58.63
2019-01-30T00:45:38.821Z,59.95
2019-01-30T00:46:38.804Z,60.89
2019-01-30T00:47:38.782Z,61.55
2019-01-30T00:48:38.758Z,61.74
2019-01-30T00:49:38.746Z,61.46
2019-01-30T00:50:38.718Z,60.89
2019-01-30T00:51:38.696Z,61.55
2019-01-30T00:52:38.676Z,61.08
2019-01-30T00:53:38.652Z,60.42
2019-01-30T00:54:38.632Z,60.89
2019-01-30T00:55:38.614Z,61.08
2019-01-30T00:56:38.592Z,60.42
2019-01-30T00:57:38.573Z,60.71
2019-01-30T00:58:38.545Z,60.61
2019-01-30T00:59:38.528Z,60.33
2019-01-30T01:00:38.506Z,60.05
2019-01-30T01:01:38.488Z,59.10
2019-01-30T01:02:38.466Z,59.00
2019-01-30T01:03:38.454Z,59.10
2019-01-30T01:04:38.422Z,60.33
2019-01-30T01:05:38.405Z,59.48
2019-01-30T01:06:38.380Z,59.76
2019-01-30T01:07:38.358Z,60.33
2019-01-30T01:08:38.336Z,59.57
2019-01-30T01:09:38.316Z,59.67
2019-01-30T01:10:38.298Z,59.95
2019-01-30T01:11:38.274Z,59.86
2019-01-30T01:12:38.254Z,60.42
2019-01-30T01:13:38.238Z,59.48
2019-01-30T01:14:38.215Z,59.10
2019-01-30T01:15:38.188Z,59.10
2019-01-30T01:16:38.169Z,59.76
2019-01-30T01:17:38.150Z,59.57
2019-01-30T01:18:38.130Z,59.29
2019-01-30T01:19:38.128Z,58.34
2019-01-30T01:20:38.086Z,59.19
2019-01-30T01:21:38.062Z,59.10
2019-01-30T01:22:38.048Z,59.67
2019-01-30T01:23:38.027Z,59.67
2019-01-30T01:24:38.008Z,59.57
2019-01-30T01:25:37.981Z,59.67
2019-01-30T01:26:37.958Z,60.14
2019-01-30T01:27:37.938Z,60.52
2019-01-30T01:28:37.921Z,60.24
2019-01-30T01:29:37.900Z,60.42
2019-01-30T01:30:37.876Z,61.08
2019-01-30T01:31:37.854Z,61.27
2019-01-30T01:32:37.837Z,60.42
2019-01-30T01:33:37.812Z,61.36
2019-01-30T01:34:37.798Z,60.33
2019-01-30T01:35:37.774Z,60.71
2019-01-30T01:36:37.755Z,60.33
2019-01-30T01:37:37.732Z,59.95
2019-01-30T01:38:37.709Z,60.42
2019-01-30T01:39:37.690Z,60.99
2019-01-30T01:40:37.670Z,61.36
2019-01-30T01:41:37.649Z,61.18
2019-01-30T01:42:37.627Z,61.55
2019-01-30T01:43:37.600Z,61.36
2019-01-30T01:44:37.586Z,61.36
2019-01-30T01:45:37.566Z,61.36
2019-01-30T01:46:37.536Z,61.27
2019-01-30T01:47:37.523Z,61.27
2019-01-30T01:48:37.497Z,60.99
2019-01-30T01:49:37.476Z,61.18
2019-01-30T01:50:37.454Z,61.55
2019-01-30T01:51:37.438Z,61.36
2019-01-30T01:52:37.416Z,62.12
2019-01-30T01:53:37.396Z,61.74
2019-01-30T01:54:37.375Z,61.55
2019-01-30T01:55:37.354Z,61.55
2019-01-30T01:56:37.333Z,61.27
2019-01-30T01:57:37.319Z,60.89
2019-01-30T01:58:37.292Z,61.27
2019-01-30T01:59:37.271Z,61.36
2019-01-30T02:00:37.249Z,61.65
2019-01-30T02:01:37.224Z,61.18
2019-01-30T02:02:37.209Z,60.14
2019-01-30T02:03:37.190Z,60.46
2019-01-30T02:04:37.167Z,60.55
2019-01-30T02:05:37.148Z,60.17
2019-01-30T02:06:37.128Z,59.51
2019-01-30T02:07:37.108Z,58.94
2019-01-30T02:08:37.079Z,59.60
2019-01-30T02:09:37.058Z,59.89
2019-01-30T02:10:37.045Z,60.46
2019-01-30T02:11:37.029Z,60.27
2019-01-30T02:12:37.001Z,60.74
2019-01-30T02:13:36.976Z,60.93
2019-01-30T02:14:36.965Z,61.30
2019-01-30T02:15:36.933Z,61.30
2019-01-30T02:16:36.915Z,61.49
2019-01-30T02:17:36.895Z,62.06
2019-01-30T02:18:36.878Z,62.53
2019-01-30T02:19:36.854Z,62.72
2019-01-30T02:20:36.836Z,62.15
2019-01-30T02:21:36.813Z,61.77
2019-01-30T02:22:36.792Z,61.30
2019-01-30T02:23:36.768Z,62.15
2019-01-30T02:24:36.753Z,62.44
2019-01-30T02:25:36.738Z,62.62
2019-01-30T02:26:36.713Z,63.10
2019-01-30T02:27:36.696Z,63.38
2019-01-30T02:28:36.675Z,63.48
2019-01-30T02:29:36.650Z,63.67
2019-01-30T02:30:46.702Z,63.85
2019-01-30T02:31:36.607Z,64.70
2019-01-30T02:32:36.592Z,64.70
2019-01-30T02:33:36.574Z,65.27
2019-01-30T02:34:36.540Z,64.79
2019-01-30T02:35:36.528Z,65.17
2019-01-30T02:36:36.517Z,64.70
2019-01-30T02:37:36.487Z,64.32
2019-01-30T02:38:36.462Z,63.10
2019-01-30T02:39:36.441Z,63.19
2019-01-30T02:40:36.423Z,62.06
2019-01-30T02:41:36.398Z,61.49
2019-01-30T02:42:36.389Z,61.49
2019-01-30T02:43:36.363Z,61.58
2019-01-30T02:44:36.344Z,61.49
2019-01-30T02:45:36.336Z,60.74
2019-01-30T02:46:36.297Z,61.21
2019-01-30T02:47:36.283Z,62.81
2019-01-30T02:48:36.262Z,63.38
2019-01-30T02:49:36.232Z,63.29
2019-01-30T02:50:36.215Z,63.19
2019-01-30T02:51:36.198Z,62.62
2019-01-30T02:52:36.183Z,61.77
2019-01-30T02:53:36.160Z,61.68
2019-01-30T02:54:36.138Z,61.68
2019-01-30T02:55:36.114Z,61.58
2019-01-30T02:56:36.095Z,61.87
2019-01-30T02:57:36.075Z,62.91
2019-01-30T02:58:36.051Z,63.19
2019-01-30T02:59:36.035Z,64.04
2019-01-30T03:00:36.010Z,64.42
2019-01-30T03:01:35.985Z,63.19
2019-01-30T03:02:35.975Z,62.72
2019-01-30T03:03:35.948Z,62.44
2019-01-30T03:04:35.951Z,61.58
2019-01-30T03:05:35.943Z,61.02
2019-01-30T03:06:35.893Z,60.93
2019-01-30T03:07:35.877Z,60.46
2019-01-30T03:08:35.849Z,60.55
2019-01-30T03:09:35.828Z,60.83
2019-01-30T03:10:35.809Z,61.30
2019-01-30T03:11:35.787Z,61.49
2019-01-30T03:12:35.777Z,62.53
2019-01-30T03:13:35.742Z,62.06
2019-01-30T03:14:35.731Z,62.62
2019-01-30T03:15:35.735Z,64.14
2019-01-30T03:16:35.681Z,63.85
2019-01-30T03:17:35.668Z,63.38
2019-01-30T03:18:35.653Z,63.10
2019-01-30T03:19:35.619Z,62.81
2019-01-30T03:20:35.599Z,61.96
2019-01-30T03:21:35.584Z,61.58
2019-01-30T03:22:35.563Z,61.96
2019-01-30T03:23:35.539Z,61.58
2019-01-30T03:24:35.522Z,61.68
2019-01-30T03:25:35.499Z,61.96
2019-01-30T03:26:35.479Z,61.96
2019-01-30T03:27:35.456Z,61.96
2019-01-30T03:28:35.442Z,61.40
2019-01-30T03:29:35.419Z,61.11
2019-01-30T03:30:35.399Z,61.21
2019-01-30T03:31:35.381Z,62.15
2019-01-30T03:32:35.366Z,62.72
2019-01-30T03:33:35.338Z,62.15
2019-01-30T03:34:35.322Z,62.15
2019-01-30T03:35:35.298Z,61.96
2019-01-30T03:36:35.277Z,62.15
2019-01-30T03:37:35.256Z,61.96
2019-01-30T03:38:35.238Z,62.81
2019-01-30T03:39:35.218Z,63.29
2019-01-30T03:40:35.191Z,64.23
2019-01-30T03:41:35.176Z,64.23
2019-01-30T03:42:35.145Z,64.14
2019-01-30T03:43:35.128Z,63.10
2019-01-30T03:44:35.113Z,62.91
2019-01-30T03:45:35.092Z,62.81
2019-01-30T03:46:35.070Z,62.91
2019-01-30T03:47:35.048Z,63.48
2019-01-30T03:48:35.030Z,63.10
2019-01-30T03:49:35.004Z,63.00
2019-01-30T03:50:34.991Z,62.91
2019-01-30T03:51:34.976Z,63.48
2019-01-30T03:52:34.958Z,64.51
2019-01-30T03:53:34.923Z,64.61
2019-01-30T03:54:34.909Z,64.23
2019-01-30T03:55:34.887Z,63.95
2019-01-30T03:56:34.865Z,63.85
2019-01-30T03:57:34.843Z,64.42
2019-01-30T03:58:34.832Z,64.51
2019-01-30T03:59:34.805Z,64.32
2019-01-30T04:00:34.791Z,64.51
2019-01-30T04:01:34.763Z,64.70
2019-01-30T04:02:34.740Z,64.23
2019-01-30T04:03:34.716Z,64.23
2019-01-30T04:04:34.697Z,64.04
2019-01-30T04:05:34.680Z,63.92
2019-01-30T04:06:34.660Z,64.04
2019-01-30T04:07:34.643Z,63.57
2019-01-30T04:08:34.619Z,62.91
2019-01-30T04:09:34.599Z,63.00
2019-01-30T04:10:34.575Z,62.91
2019-01-30T04:11:34.561Z,62.62
2019-01-30T04:12:34.536Z,62.72
2019-01-30T04:13:34.506Z,61.96
2019-01-30T04:14:34.495Z,62.25
2019-01-30T04:15:34.472Z,62.06
2019-01-30T04:16:34.455Z,62.25
2019-01-30T04:17:34.433Z,62.91
2019-01-30T04:18:34.408Z,62.91
2019-01-30T04:19:34.389Z,62.34
2019-01-30T04:20:34.367Z,62.06
2019-01-30T04:21:34.350Z,61.58
2019-01-30T04:22:34.326Z,61.68
2019-01-30T04:23:34.304Z,61.30
2019-01-30T04:24:34.286Z,61.77
2019-01-30T04:25:34.267Z,62.06
2019-01-30T04:26:34.247Z,61.58
2019-01-30T04:27:34.226Z,61.58
2019-01-30T04:28:34.204Z,61.30
2019-01-30T04:29:34.182Z,61.02
2019-01-30T04:30:34.159Z,61.30
2019-01-30T04:31:38.241Z,61.21
2019-01-30T04:32:34.127Z,61.08
2019-01-30T04:33:34.099Z,61.40
2019-01-30T04:34:34.086Z,61.49
2019-01-30T04:35:34.060Z,61.49
2019-01-30T04:36:34.047Z,61.40
2019-01-30T04:37:34.017Z,61.65
2019-01-30T04:38:33.997Z,62.02
2019-01-30T04:39:33.974Z,62.21
2019-01-30T04:40:33.956Z,62.25
2019-01-30T04:41:33.935Z,61.58
2019-01-30T04:42:33.914Z,61.49
2019-01-30T04:43:33.896Z,61.93
2019-01-30T04:44:33.872Z,62.21
2019-01-30T04:45:33.864Z,63.10
2019-01-30T04:46:33.833Z,63.92
2019-01-30T04:47:33.812Z,64.29
2019-01-30T04:48:33.791Z,64.89
2019-01-30T04:49:33.766Z,65.46
2019-01-30T04:50:33.744Z,66.41
2019-01-30T04:51:33.730Z,65.90
2019-01-30T04:52:33.708Z,66.09
2019-01-30T04:53:33.687Z,65.42
2019-01-30T04:54:33.667Z,64.67
2019-01-30T04:55:33.641Z,64.39
2019-01-30T04:56:33.623Z,64.86
2019-01-30T04:57:33.603Z,65.42
2019-01-30T04:58:33.586Z,65.33
2019-01-30T04:59:33.561Z,64.86
2019-01-30T05:00:33.546Z,65.05
2019-01-30T05:01:33.522Z,64.95
2019-01-30T05:02:33.500Z,64.86
2019-01-30T05:03:33.479Z,65.42
2019-01-30T05:04:33.460Z,65.61
2019-01-30T05:05:33.441Z,65.05
2019-01-30T05:06:33.417Z,65.42
2019-01-30T05:07:33.403Z,66.18
2019-01-30T05:08:33.377Z,65.99
2019-01-30T05:09:33.354Z,65.99
2019-01-30T05:10:33.338Z,66.18
2019-01-30T05:11:33.312Z,67.22
2019-01-30T05:12:33.294Z,65.99
2019-01-30T05:13:33.275Z,65.05
2019-01-30T05:14:33.255Z,64.86
2019-01-30T05:15:33.228Z,64.48
2019-01-30T05:16:33.209Z,64.48
2019-01-30T05:17:33.191Z,62.97
2019-01-30T05:18:33.172Z,61.84
2019-01-30T05:19:33.150Z,62.21
2019-01-30T05:20:33.127Z,63.92
2019-01-30T05:21:33.109Z,64.48
2019-01-30T05:22:33.082Z,64.48
2019-01-30T05:23:33.069Z,64.39
2019-01-30T05:24:33.049Z,64.76
2019-01-30T05:25:33.027Z,64.76
2019-01-30T05:26:33.007Z,64.89
2019-01-30T05:27:32.983Z,65.52
2019-01-30T05:28:32.966Z,64.70
2019-01-30T05:29:32.990Z,64.01
2019-01-30T05:30:32.920Z,63.35
2019-01-30T05:31:32.901Z,63.85
2019-01-30T05:32:32.880Z,63.82
2019-01-30T05:33:32.859Z,63.92
2019-01-30T05:34:32.832Z,64.11
2019-01-30T05:35:32.816Z,63.95
2019-01-30T05:36:32.799Z,63.26
2019-01-30T05:37:32.781Z,63.29
2019-01-30T05:38:32.756Z,63.85
2019-01-30T05:39:32.734Z,63.38
2019-01-30T05:40:32.718Z,64.32
2019-01-30T05:41:32.696Z,64.61
2019-01-30T05:42:32.675Z,65.36
2019-01-30T05:43:32.651Z,65.36
2019-01-30T05:44:32.631Z,64.79
2019-01-30T05:45:32.611Z,64.70
2019-01-30T05:46:32.589Z,64.70
2019-01-30T05:47:32.567Z,65.08
2019-01-30T05:48:32.552Z,65.08
2019-01-30T05:49:32.524Z,64.79
2019-01-30T05:50:32.508Z,63.95
2019-01-30T05:51:32.488Z,63.19
2019-01-30T05:52:32.466Z,62.81
2019-01-30T05:53:32.448Z,62.72
2019-01-30T05:54:32.426Z,61.74
2019-01-30T05:55:32.412Z,61.49
2019-01-30T05:56:32.383Z,61.58
2019-01-30T05:57:32.370Z,62.72
2019-01-30T05:58:32.343Z,62.44
2019-01-30T05:59:32.325Z,62.53
2019-01-30T06:00:32.303Z,63.10
2019-01-30T06:01:32.284Z,63.38
2019-01-30T06:02:32.263Z,63.67
2019-01-30T06:03:32.249Z,64.04
2019-01-30T06:04:32.217Z,65.27
2019-01-30T06:05:32.196Z,65.23
2019-01-30T06:06:32.191Z,65.93
2019-01-30T06:07:32.160Z,66.22
2019-01-30T06:08:32.132Z,66.22
2019-01-30T06:09:32.118Z,66.31
2019-01-30T06:10:32.097Z,66.59
2019-01-30T06:11:32.070Z,66.22
2019-01-30T06:12:32.047Z,66.22
2019-01-30T06:13:32.035Z,66.22
2019-01-30T06:14:32.119Z,66.65
2019-01-30T06:15:31.995Z,67.16
2019-01-30T06:16:31.974Z,66.22
2019-01-30T06:17:31.950Z,66.28
2019-01-30T06:18:31.931Z,65.99
2019-01-30T06:19:31.914Z,66.09
2019-01-30T06:20:31.887Z,65.99
2019-01-30T06:21:31.876Z,66.22
2019-01-30T06:22:31.844Z,66.03
2019-01-30T06:23:31.830Z,66.22
2019-01-30T06:24:31.806Z,65.99
2019-01-30T06:25:31.791Z,64.95
2019-01-30T06:26:31.766Z,64.76
2019-01-30T06:27:31.741Z,64.70
2019-01-30T06:28:31.720Z,64.98
2019-01-30T06:29:31.702Z,64.61
2019-01-30T06:30:31.683Z,64.32
2019-01-30T06:31:31.665Z,64.23
2019-01-30T06:32:31.640Z,64.98
2019-01-30T06:33:31.622Z,65.46
2019-01-30T06:34:31.598Z,65.93
2019-01-30T06:35:31.580Z,65.93
2019-01-30T06:36:31.557Z,65.74
2019-01-30T06:37:31.533Z,65.55
2019-01-30T06:38:31.515Z,65.46
2019-01-30T06:39:31.489Z,65.42
2019-01-30T06:40:31.475Z,65.84
2019-01-30T06:41:31.451Z,64.70
2019-01-30T06:42:31.433Z,63.95
2019-01-30T06:43:31.419Z,64.42
2019-01-30T06:44:31.389Z,64.51
2019-01-30T06:45:31.378Z,64.89
2019-01-30T06:46:31.350Z,65.74
2019-01-30T06:47:31.332Z,66.97
2019-01-30T06:48:31.307Z,67.44
2019-01-30T06:49:31.286Z,67.16
2019-01-30T06:50:31.265Z,66.03
2019-01-30T06:51:31.249Z,65.08
2019-01-30T06:52:31.224Z,64.51
2019-01-30T06:53:31.206Z,65.08
2019-01-30T06:54:31.183Z,64.23
2019-01-30T06:55:31.161Z,63.00
2019-01-30T06:56:31.141Z,63.57
2019-01-30T06:57:31.118Z,64.51
2019-01-30T06:58:31.097Z,66.22
2019-01-30T06:59:31.080Z,66.31
2019-01-30T07:00:31.066Z,67.16
2019-01-30T07:01:31.035Z,66.22
2019-01-30T07:02:32.425Z,64.79
2019-01-30T07:03:31.003Z,63.85
2019-01-30T07:04:30.975Z,64.32
2019-01-30T07:05:30.956Z,64.51
2019-01-30T07:06:30.937Z,65.17
2019-01-30T07:07:30.910Z,65.08
2019-01-30T07:08:30.893Z,64.70
2019-01-30T07:09:30.874Z,64.23
2019-01-30T07:10:30.850Z,64.14
2019-01-30T07:11:30.833Z,63.19
2019-01-30T07:12:30.814Z,63.29
2019-01-30T07:13:30.792Z,64.14
2019-01-30T07:14:30.772Z,64.89
2019-01-30T07:15:30.752Z,65.93
2019-01-30T07:16:30.726Z,66.12
2019-01-30T07:17:30.707Z,66.88
2019-01-30T07:18:30.687Z,66.88
2019-01-30T07:19:30.668Z,67.07
2019-01-30T07:20:31.304Z,67.35
2019-01-30T07:21:30.628Z,67.25
2019-01-30T07:22:30.608Z,67.72
2019-01-30T07:23:30.664Z,67.72
2019-01-30T07:24:30.564Z,67.82
2019-01-30T07:25:30.546Z,67.63
2019-01-30T07:26:30.526Z,67.72
2019-01-30T07:27:30.500Z,67.44
2019-01-30T07:28:30.483Z,67.72
2019-01-30T07:29:30.461Z,67.91
2019-01-30T07:30:30.444Z,68.10
2019-01-30T07:31:30.425Z,68.29
2019-01-30T07:32:30.402Z,68.86
2019-01-30T07:33:30.380Z,69.14
2019-01-30T07:34:30.358Z,69.52
2019-01-30T07:35:30.338Z,69.24
2019-01-30T07:36:30.318Z,69.05
2019-01-30T07:37:30.296Z,69.24
2019-01-30T07:38:30.276Z,68.95
2019-01-30T07:39:30.254Z,68.76
2019-01-30T07:40:30.234Z,68.86
2019-01-30T07:41:30.222Z,68.57
2019-01-30T07:42:30.206Z,68.67
2019-01-30T07:43:30.181Z,68.95
2019-01-30T07:44:30.155Z,68.95
2019-01-30T07:45:30.136Z,69.33
2019-01-30T07:46:30.179Z,68.86
2019-01-30T07:47:30.101Z,68.57
2019-01-30T07:48:30.075Z,68.39
2019-01-30T07:49:30.052Z,67.82
2019-01-30T07:50:30.036Z,68.20
2019-01-30T07:51:30.014Z,67.72
2019-01-30T07:52:32.672Z,66.97
2019-01-30T07:53:29.978Z,65.55
2019-01-30T07:54:29.954Z,65.93
2019-01-30T07:55:29.936Z,66.12
2019-01-30T07:56:29.919Z,66.31
2019-01-30T07:57:29.897Z,66.22
2019-01-30T07:58:29.875Z,66.22
2019-01-30T07:59:31.979Z,66.69
2019-01-30T08:00:29.841Z,66.35
2019-01-30T08:01:29.813Z,66.44
2019-01-30T08:02:29.804Z,65.59
2019-01-30T08:03:29.777Z,64.83
2019-01-30T08:04:29.758Z,64.73
2019-01-30T08:05:29.740Z,64.54
2019-01-30T08:06:29.722Z,65.21
2019-01-30T08:07:29.693Z,64.83
2019-01-30T08:08:29.680Z,64.92
2019-01-30T08:09:29.650Z,64.73
2019-01-30T08:10:29.634Z,63.42
2019-01-30T08:11:29.612Z,63.32
2019-01-30T08:12:29.588Z,62.85
2019-01-30T08:13:29.573Z,63.23
2019-01-30T08:14:29.559Z,63.23
2019-01-30T08:15:29.533Z,63.13
2019-01-30T08:16:29.515Z,61.80
2019-01-30T08:17:29.495Z,61.71
2019-01-30T08:18:29.477Z,61.61
2019-01-30T08:19:29.452Z,61.52
2019-01-30T08:20:29.435Z,61.24
2019-01-30T08:21:29.421Z,61.15
2019-01-30T08:22:29.398Z,60.39
2019-01-30T08:23:29.630Z,60.20
2019-01-30T08:24:29.470Z,60.11
2019-01-30T08:25:29.540Z,60.11
2019-01-30T08:26:29.316Z,60.77
2019-01-30T08:27:29.522Z,60.77
2019-01-30T08:28:29.302Z,60.39
2019-01-30T08:29:29.574Z,60.39
2019-01-30T08:30:29.469Z,60.77
2019-01-30T08:31:29.574Z,61.24
2019-01-30T08:32:29.410Z,61.36
2019-01-30T08:33:29.218Z,61.74
2019-01-30T08:34:29.156Z,61.61
2019-01-30T08:35:29.148Z,60.33
2019-01-30T08:36:29.119Z,60.23
2019-01-30T08:37:29.103Z,60.52
2019-01-30T08:38:29.085Z,60.42
2019-01-30T08:39:29.061Z,60.99
2019-01-30T08:40:29.039Z,60.33
2019-01-30T08:41:29.027Z,60.52
2019-01-30T08:42:29.003Z,59.76
2019-01-30T08:43:28.986Z,59.00
2019-01-30T08:44:28.971Z,57.58
2019-01-30T08:45:28.946Z,57.11
2019-01-30T08:46:28.924Z,57.87
2019-01-30T08:47:28.910Z,57.77
2019-01-30T08:48:30.253Z,57.30
2019-01-30T08:49:28.868Z,57.11
2019-01-30T08:50:28.929Z,57.58
2019-01-30T08:51:28.830Z,57.96
2019-01-30T08:52:28.812Z,57.96
2019-01-30T08:53:28.793Z,57.68
2019-01-30T08:54:28.771Z,57.49
2019-01-30T08:55:28.759Z,57.01
2019-01-30T08:56:28.735Z,57.11
2019-01-30T08:57:28.718Z,56.63
2019-01-30T08:58:28.703Z,56.63
2019-01-30T08:59:28.680Z,56.48
2019-01-30T09:00:28.655Z,56.57
2019-01-30T09:01:28.636Z,56.85
2019-01-30T09:02:28.620Z,56.85
2019-01-30T09:03:28.600Z,57.33
2019-01-30T09:04:28.578Z,57.23
2019-01-30T09:05:28.560Z,57.33
2019-01-30T09:06:28.543Z,57.33
2019-01-30T09:07:28.523Z,57.14
2019-01-30T09:08:28.501Z,56.67
2019-01-30T09:09:28.488Z,57.71
2019-01-30T09:10:28.470Z,57.80
2019-01-30T09:11:28.446Z,57.90
2019-01-30T09:12:28.428Z,57.33
2019-01-30T09:13:28.414Z,56.85
2019-01-30T09:14:28.395Z,57.04
2019-01-30T09:15:28.376Z,56.01
2019-01-30T09:16:28.356Z,54.99
2019-01-30T09:17:28.335Z,55.37
2019-01-30T09:18:28.318Z,55.27
2019-01-30T09:19:28.298Z,55.56
2019-01-30T09:20:28.281Z,55.37
2019-01-30T09:21:28.263Z,54.33
2019-01-30T09:22:28.245Z,54.61
2019-01-30T09:23:28.227Z,54.52
2019-01-30T09:24:28.217Z,54.90
2019-01-30T09:25:28.188Z,54.90
2019-01-30T09:26:28.170Z,54.61
2019-01-30T09:27:28.154Z,54.23
2019-01-30T09:28:28.135Z,53.95
2019-01-30T09:29:28.117Z,53.85
2019-01-30T09:30:28.097Z,53.76
2019-01-30T09:31:28.078Z,53.66
2019-01-30T09:32:28.062Z,54.16
2019-01-30T09:33:28.042Z,54.55
2019-01-30T09:34:28.023Z,54.64
2019-01-30T09:35:28.010Z,53.31
2019-01-30T09:36:27.989Z,53.22
2019-01-30T09:37:27.974Z,53.88
2019-01-30T09:38:27.965Z,54.55
2019-01-30T09:39:27.960Z,54.55
2019-01-30T09:40:27.920Z,53.97
2019-01-30T09:41:27.899Z,53.13
2019-01-30T09:42:27.881Z,52.46
2019-01-30T09:43:27.869Z,51.99
2019-01-30T09:44:27.840Z,52.18
2019-01-30T09:45:27.827Z,52.08
2019-01-30T09:46:27.811Z,51.99
2019-01-30T09:47:27.812Z,52.87
2019-01-30T09:48:27.785Z,51.82
2019-01-30T09:49:27.854Z,51.07
2019-01-30T09:50:27.734Z,50.31
2019-01-30T09:51:27.725Z,50.12
2019-01-30T09:52:27.705Z,49.74
2019-01-30T09:53:27.689Z,49.46
2019-01-30T09:54:27.682Z,49.46
2019-01-30T09:55:27.655Z,50.02
2019-01-30T09:56:27.632Z,51.07
2019-01-30T09:57:27.622Z,53.15
2019-01-30T09:58:27.601Z,53.59
2019-01-30T09:59:27.585Z,53.41
2019-01-30T10:00:27.567Z,53.59
2019-01-30T10:01:27.547Z,53.97
2019-01-30T10:02:27.531Z,54.74
2019-01-30T10:03:36.121Z,54.83
2019-01-30T10:04:27.507Z,54.16
2019-01-30T10:05:27.481Z,54.26
2019-01-30T10:06:27.459Z,53.59
2019-01-30T10:07:27.440Z,53.72
2019-01-30T10:08:27.432Z,52.96
2019-01-30T10:09:27.412Z,52.68
2019-01-30T10:10:27.395Z,52.20
2019-01-30T10:11:27.374Z,52.01
2019-01-30T10:12:27.362Z,52.11
2019-01-30T10:13:27.339Z,52.20
2019-01-30T10:14:27.319Z,51.92
2019-01-30T10:15:27.307Z,51.92
2019-01-30T10:16:27.291Z,51.07
2019-01-30T10:17:27.272Z,50.40
2019-01-30T10:18:27.263Z,50.31
2019-01-30T10:19:27.240Z,50.12
2019-01-30T10:20:27.222Z,50.49
2019-01-30T10:21:27.207Z,50.69
2019-01-30T10:22:27.196Z,50.21
2019-01-30T10:23:27.180Z,50.49
2019-01-30T10:24:29.038Z,50.49
2019-01-30T10:25:27.131Z,50.69
2019-01-30T10:26:27.122Z,50.78
2019-01-30T10:27:27.104Z,51.16
2019-01-30T10:28:27.083Z,50.49
2019-01-30T10:29:27.073Z,50.15
2019-01-30T10:30:27.055Z,50.15
2019-01-30T10:31:27.049Z,50.34
2019-01-30T10:32:27.023Z,49.95
2019-01-30T10:33:26.997Z,50.43
2019-01-30T10:34:26.987Z,50.34
2019-01-30T10:35:26.970Z,50.24
2019-01-30T10:36:26.971Z,49.01
2019-01-30T10:37:26.934Z,48.15
2019-01-30T10:38:26.921Z,47.99
2019-01-30T10:39:26.904Z,47.52
2019-01-30T10:40:26.896Z,47.42
2019-01-30T10:41:26.870Z,47.13
2019-01-30T10:42:26.852Z,47.32
2019-01-30T10:43:26.849Z,46.66
2019-01-30T10:44:26.820Z,46.94
2019-01-30T10:45:26.803Z,46.85
2019-01-30T10:46:26.782Z,47.52
2019-01-30T10:47:26.782Z,47.42
2019-01-30T10:48:26.759Z,47.80
2019-01-30T10:49:26.746Z,47.99
2019-01-30T10:50:26.727Z,48.08
2019-01-30T10:51:26.705Z,48.08
2019-01-30T10:52:26.688Z,47.71
2019-01-30T10:53:26.679Z,47.61
2019-01-30T10:54:26.662Z,46.28
2019-01-30T10:55:26.647Z,45.90
2019-01-30T10:56:26.710Z,45.33
2019-01-30T10:57:26.610Z,45.24
2019-01-30T10:58:26.592Z,45.43
2019-01-30T10:59:26.794Z,45.26
2019-01-30T11:00:26.564Z,44.98
2019-01-30T11:01:26.550Z,44.48
2019-01-30T11:02:26.531Z,44.69
2019-01-30T11:03:26.519Z,44.76
2019-01-30T11:04:26.499Z,44.88
2019-01-30T11:05:26.484Z,45.07
2019-01-30T11:06:26.506Z,44.21
2019-01-30T11:07:26.457Z,44.02
2019-01-30T11:08:26.436Z,43.46
2019-01-30T11:09:26.419Z,43.46
2019-01-30T11:10:26.401Z,43.36
2019-01-30T11:11:26.385Z,43.55
2019-01-30T11:12:26.369Z,43.93
2019-01-30T11:13:26.353Z,44.21
2019-01-30T11:14:26.341Z,44.12
2019-01-30T11:15:26.329Z,43.65
2019-01-30T11:16:26.306Z,43.46
2019-01-30T11:17:26.292Z,43.08
2019-01-30T11:18:26.281Z,42.63
2019-01-30T11:19:26.254Z,43.01
2019-01-30T11:20:26.247Z,42.82
2019-01-30T11:21:26.225Z,42.82
2019-01-30T11:22:26.213Z,42.91
2019-01-30T11:23:26.196Z,42.91
2019-01-30T11:24:26.188Z,42.34
2019-01-30T11:25:26.173Z,41.86
2019-01-30T11:26:26.153Z,41.67
2019-01-30T11:27:26.152Z,42.24
2019-01-30T11:28:26.116Z,42.63
2019-01-30T11:29:26.103Z,43.48
2019-01-30T11:30:26.090Z,43.48
2019-01-30T11:31:26.073Z,43.48
2019-01-30T11:32:26.066Z,42.43
2019-01-30T11:33:26.041Z,41.39
2019-01-30T11:34:26.025Z,40.44
2019-01-30T11:35:26.012Z,39.87
2019-01-30T11:36:25.993Z,39.78
2019-01-30T11:37:25.983Z,39.87
2019-01-30T11:38:25.976Z,39.78
2019-01-30T11:39:25.950Z,39.87
2019-01-30T11:40:25.933Z,40.16
2019-01-30T11:41:25.921Z,39.78
2019-01-30T11:42:25.908Z,39.68
2019-01-30T11:43:25.890Z,39.97
2019-01-30T11:44:27.877Z,39.87
2019-01-30T11:45:25.853Z,40.34
2019-01-30T11:46:25.845Z,40.16
2019-01-30T11:47:25.827Z,40.63
2019-01-30T11:48:25.810Z,40.56
2019-01-30T11:49:25.803Z,40.82
2019-01-30T11:50:25.785Z,41.22
2019-01-30T11:51:25.769Z,40.25
2019-01-30T11:52:25.754Z,40.08
2019-01-30T11:53:25.745Z,39.13
2019-01-30T11:54:25.723Z,38.85
2019-01-30T11:55:25.706Z,38.75
2019-01-30T11:56:25.692Z,39.51
2019-01-30T11:57:25.677Z,39.61
2019-01-30T11:58:25.661Z,39.89
2019-01-30T11:59:25.652Z,39.70
2019-01-30T12:00:25.630Z,39.51
2019-01-30T12:01:25.628Z,40.08
2019-01-30T12:02:25.602Z,39.89
2019-01-30T12:03:25.584Z,39.89
2019-01-30T12:04:25.570Z,39.89
2019-01-30T12:05:25.560Z,39.70
2019-01-30T12:06:25.543Z,40.01
2019-01-30T12:07:25.534Z,39.81
2019-01-30T12:08:25.509Z,38.96
2019-01-30T12:09:25.511Z,38.77
2019-01-30T12:10:25.487Z,39.15
2019-01-30T12:11:25.470Z,39.53
2019-01-30T12:12:25.454Z,39.06
2019-01-30T12:13:25.437Z,39.06
2019-01-30T12:14:25.426Z,38.60
2019-01-30T12:15:25.402Z,39.07
2019-01-30T12:16:25.395Z,39.45
2019-01-30T12:17:25.380Z,39.17
2019-01-30T12:18:25.365Z,39.36
2019-01-30T12:19:25.353Z,39.07
2019-01-30T12:20:25.336Z,39.36
2019-01-30T12:21:25.324Z,39.07
2019-01-30T12:22:25.304Z,38.39
2019-01-30T12:23:25.297Z,38.29
2019-01-30T12:24:25.280Z,37.73
2019-01-30T12:25:25.267Z,37.92
2019-01-30T12:26:25.250Z,37.73
2019-01-30T12:27:25.238Z,38.01
2019-01-30T12:28:25.222Z,38.46
2019-01-30T12:29:25.209Z,38.37
2019-01-30T12:30:25.196Z,38.75
2019-01-30T12:31:25.184Z,39.42
2019-01-30T12:32:25.174Z,40.06
2019-01-30T12:33:25.146Z,40.25
2019-01-30T12:34:28.280Z,41.49
2019-01-30T12:35:25.229Z,41.30
2019-01-30T12:36:25.108Z,41.85
2019-01-30T12:37:25.088Z,42.32
2019-01-30T12:38:25.070Z,42.79
2019-01-30T12:39:25.061Z,42.70
2019-01-30T12:40:25.048Z,42.98
2019-01-30T12:41:25.034Z,43.65
2019-01-30T12:42:25.013Z,44.02
2019-01-30T12:43:25.005Z,43.93
2019-01-30T12:44:24.987Z,43.55
2019-01-30T12:45:24.974Z,43.65
2019-01-30T12:46:26.875Z,43.74
2019-01-30T12:47:24.944Z,43.84
2019-01-30T12:48:24.934Z,43.93
2019-01-30T12:49:24.918Z,43.74
2019-01-30T12:50:24.891Z,43.55
2019-01-30T12:51:24.882Z,43.74
2019-01-30T12:52:24.901Z,44.02